createdAt,value
2022-12-15T00:03:24.287Z,59.00
2022-12-15T00:08:44.730Z,48.63
2022-12-15T00:14:05.166Z,55.58
2022-12-15T00:19:25.623Z,65.28
2022-12-15T00:30:10.148Z,61.20
2022-12-15T00:40:32.183Z,38.40
2022-12-15T00:45:57.090Z,55.60
2022-12-15T00:50:58.831Z,54.38
2022-12-15T00:56:18.974Z,59.92
2022-12-15T01:01:39.765Z,52.25
2022-12-15T01:07:07.768Z,45.42
2022-12-15T01:12:28.271Z,53.38
2022-12-15T01:17:48.593Z,58.78
2022-12-15T01:22:54.676Z,56.08
2022-12-15T01:27:56.773Z,53.97
2022-12-15T01:32:58.505Z,54.72
2022-12-15T01:38:00.802Z,65.30
2022-12-15T01:43:03.008Z,56.55
2022-12-15T01:48:07.614Z,52.50
2022-12-15T01:53:10.426Z,52.92
2022-12-15T01:58:16.026Z,55.92
2022-12-15T02:03:18.873Z,51.92
2022-12-15T02:08:21.121Z,51.85
2022-12-15T02:13:36.967Z,50.85
2022-12-15T02:18:48.995Z,61.38
2022-12-15T02:24:19.463Z,54.13
2022-12-15T02:29:48.441Z,51.17
2022-12-15T02:35:02.130Z,63.95
2022-12-15T02:40:07.141Z,51.45
2022-12-15T02:45:13.006Z,61.42
2022-12-15T02:50:26.730Z,52.83
2022-12-15T02:55:52.988Z,56.25
2022-12-15T03:01:20.356Z,47.80
2022-12-15T03:06:25.270Z,55.03
2022-12-15T03:11:27.730Z,50.22
2022-12-15T03:16:29.538Z,55.75
2022-12-15T03:21:31.555Z,62.17
2022-12-15T03:26:33.272Z,53.00
2022-12-15T03:31:35.146Z,54.00
2022-12-15T03:36:37.340Z,52.75
2022-12-15T03:41:39.112Z,56.08
2022-12-15T03:46:40.939Z,51.00
2022-12-15T03:51:42.875Z,52.55
2022-12-15T03:56:44.664Z,55.95
2022-12-15T04:01:49.163Z,53.15
2022-12-15T04:06:51.243Z,62.95
2022-12-15T04:11:53.102Z,66.05
2022-12-15T04:16:55.087Z,61.53
2022-12-15T04:21:58.086Z,52.80
2022-12-15T04:27:18.452Z,60.05
2022-12-15T04:32:38.950Z,57.90
2022-12-15T04:37:59.842Z,55.40
2022-12-15T04:43:20.274Z,61.97
2022-12-15T04:48:40.847Z,58.90
2022-12-15T04:54:05.308Z,61.45
2022-12-15T04:59:25.661Z,56.50
2022-12-15T05:04:46.273Z,61.30
2022-12-15T05:10:12.744Z,54.20
2022-12-15T05:15:35.448Z,58.70
2022-12-15T05:20:55.785Z,55.05
2022-12-15T05:26:17.803Z,59.45
2022-12-15T05:31:38.315Z,51.80
2022-12-15T05:36:40.076Z,60.03
2022-12-15T05:41:42.168Z,53.65
2022-12-15T05:46:44.577Z,58.38
2022-12-15T05:51:48.157Z,61.35
2022-12-15T05:56:49.968Z,60.78
2022-12-15T06:01:52.288Z,56.85
2022-12-15T06:06:54.147Z,65.32
2022-12-15T06:11:55.932Z,51.38
2022-12-15T06:16:57.939Z,54.03
2022-12-15T06:22:00.115Z,48.20
2022-12-15T06:27:02.072Z,56.53
2022-12-15T06:32:04.522Z,56.92
2022-12-15T06:37:06.244Z,66.65
2022-12-15T06:42:08.061Z,59.78
2022-12-15T06:47:09.910Z,62.17
2022-12-15T06:52:12.421Z,54.15
2022-12-15T06:57:14.483Z,57.72
2022-12-15T07:02:23.672Z,55.10
2022-12-15T07:07:28.722Z,62.30
2022-12-15T07:12:30.477Z,70.63
2022-12-15T07:17:32.227Z,55.03
2022-12-15T07:22:34.227Z,55.40
2022-12-15T07:27:35.963Z,66.47
2022-12-15T07:32:38.098Z,55.72
2022-12-15T07:37:40.256Z,50.35
2022-12-15T07:42:42.023Z,54.65
2022-12-15T07:47:44.051Z,52.05
2022-12-15T07:52:46.706Z,60.47
2022-12-15T07:57:48.543Z,54.17
2022-12-15T08:02:50.614Z,53.50
2022-12-15T08:07:52.503Z,68.25
2022-12-15T08:12:55.691Z,70.80
2022-12-15T08:17:57.560Z,62.78
2022-12-15T08:22:59.943Z,54.55
2022-12-15T08:28:01.711Z,53.75
2022-12-15T08:33:04.116Z,57.05
2022-12-15T08:38:06.062Z,58.95
2022-12-15T08:43:07.871Z,53.00
2022-12-15T08:48:09.614Z,58.42
2022-12-15T08:53:41.351Z,65.25
2022-12-15T08:58:34.132Z,61.42
2022-12-15T09:03:36.672Z,61.08
2022-12-15T09:08:38.662Z,62.88
2022-12-15T09:13:40.560Z,61.92
2022-12-15T09:18:44.510Z,55.90
2022-12-15T09:23:51.974Z,57.25
2022-12-15T09:28:57.130Z,67.50
2022-12-15T09:34:00.846Z,63.58
2022-12-15T09:39:03.139Z,67.15
2022-12-15T09:44:16.031Z,62.40
2022-12-15T09:49:46.506Z,67.88
2022-12-15T09:54:48.535Z,74.57
2022-12-15T10:00:20.998Z,65.15
2022-12-15T10:05:57.754Z,58.95
2022-12-15T10:10:55.742Z,59.58
2022-12-15T10:16:37.972Z,66.47
2022-12-15T10:21:39.942Z,67.90
2022-12-15T10:26:43.459Z,64.57
2022-12-15T10:32:01.932Z,62.08
2022-12-15T10:37:04.088Z,67.35
2022-12-15T10:42:23.766Z,68.53
2022-12-15T10:47:28.462Z,46.17
2022-12-15T10:52:36.707Z,58.70
2022-12-15T10:57:38.467Z,62.47
2022-12-15T11:02:42.224Z,52.08
2022-12-15T11:07:46.069Z,56.25
2022-12-15T11:13:13.579Z,54.67
2022-12-15T11:18:36.833Z,55.50
2022-12-15T11:24:07.843Z,52.50
2022-12-15T11:29:34.498Z,63.28
2022-12-15T11:34:41.797Z,61.97
2022-12-15T11:39:55.679Z,54.28
2022-12-15T11:45:07.956Z,55.92
2022-12-15T11:50:15.228Z,60.65
2022-12-15T11:55:44.286Z,57.30
2022-12-15T12:01:01.583Z,58.70
2022-12-15T12:06:15.678Z,55.92
2022-12-15T12:11:25.746Z,50.42
2022-12-15T12:16:40.035Z,32.83
2022-12-15T12:21:50.753Z,48.88
2022-12-15T12:27:03.728Z,48.13
2022-12-15T12:32:29.085Z,49.88
2022-12-15T12:37:54.934Z,42.10
2022-12-15T12:43:01.003Z,51.22
2022-12-15T12:48:30.572Z,47.15
2022-12-15T12:53:34.635Z,44.25
2022-12-15T12:58:39.132Z,42.03
2022-12-15T13:03:42.394Z,44.45
2022-12-15T13:08:52.692Z,37.35
2022-12-15T13:13:54.641Z,27.58
2022-12-15T13:19:03.148Z,92.28
2022-12-15T13:24:05.056Z,34.63
2022-12-15T13:29:11.487Z,45.95
2022-12-15T13:34:19.577Z,34.63
2022-12-15T13:39:30.474Z,32.38
2022-12-15T13:44:40.198Z,34.38
2022-12-15T13:49:53.296Z,26.73
2022-12-15T13:55:03.404Z,36.13
2022-12-15T14:00:18.384Z,37.20
2022-12-15T14:05:22.393Z,37.42
2022-12-15T14:10:24.177Z,38.97
2022-12-15T14:15:32.378Z,39.22
2022-12-15T14:20:40.351Z,41.15
2022-12-15T14:25:54.878Z,42.67
2022-12-15T14:31:05.675Z,32.60
2022-12-15T14:41:20.306Z,36.47
2022-12-15T14:46:27.136Z,40.75
2022-12-15T14:51:31.992Z,40.45
2022-12-15T14:56:33.759Z,38.30
2022-12-15T15:01:40.911Z,36.28
2022-12-15T15:06:44.380Z,47.17
2022-12-15T15:11:54.301Z,43.42
2022-12-15T15:17:12.830Z,36.83
2022-12-15T15:22:40.415Z,43.47
2022-12-15T15:27:42.134Z,43.72
2022-12-15T15:32:58.266Z,39.63
2022-12-15T15:38:05.344Z,37.08
2022-12-15T15:43:14.187Z,42.53
2022-12-15T15:48:27.012Z,35.45
2022-12-15T15:53:31.943Z,42.47
2022-12-15T15:58:35.055Z,44.05
2022-12-15T16:03:37.420Z,45.47
2022-12-15T16:08:39.254Z,45.70
2022-12-15T16:13:41.206Z,45.70
2022-12-15T16:18:42.967Z,40.35
2022-12-15T16:23:47.588Z,41.55
2022-12-15T16:28:49.355Z,39.03
2022-12-15T16:33:51.095Z,40.40
2022-12-15T16:38:54.106Z,50.58
2022-12-15T16:43:55.844Z,52.10
2022-12-15T16:48:57.652Z,43.47
2022-12-15T16:53:59.488Z,56.10
2022-12-15T16:59:32.388Z,54.15
2022-12-15T17:04:23.679Z,56.25
2022-12-15T17:09:26.191Z,62.15
2022-12-15T17:14:27.940Z,50.72
2022-12-15T17:19:29.681Z,51.53
2022-12-15T17:24:31.513Z,53.72
2022-12-15T17:29:33.657Z,53.50
2022-12-15T17:34:35.423Z,46.08
2022-12-15T17:39:37.521Z,55.20
2022-12-15T17:44:39.936Z,58.35
2022-12-15T17:49:42.373Z,55.45
2022-12-15T17:54:44.308Z,50.75
2022-12-15T17:59:46.793Z,61.75
2022-12-15T18:04:48.596Z,52.88
2022-12-15T18:09:52.018Z,56.30
2022-12-15T18:14:55.751Z,58.35
2022-12-15T18:19:57.637Z,55.03
2022-12-15T18:25:02.362Z,58.13
2022-12-15T18:30:04.859Z,52.88
2022-12-15T18:35:25.736Z,59.33
2022-12-15T18:40:29.993Z,54.80
2022-12-15T18:45:31.792Z,72.72
2022-12-15T18:50:33.548Z,49.63
2022-12-15T18:55:35.313Z,56.00
2022-12-15T19:00:37.610Z,71.32
2022-12-15T19:05:39.968Z,58.08
2022-12-15T19:10:56.027Z,55.25
2022-12-15T19:15:58.908Z,56.85
2022-12-15T19:21:29.929Z,58.80
2022-12-15T19:26:31.731Z,58.90
2022-12-15T19:31:33.530Z,63.85
2022-12-15T19:36:37.068Z,58.83
2022-12-15T19:41:39.740Z,62.92
2022-12-15T19:46:43.042Z,58.75
2022-12-15T19:51:45.199Z,62.75
2022-12-15T19:56:47.676Z,66.07
2022-12-15T20:01:51.933Z,55.50
2022-12-15T20:06:54.138Z,56.53
2022-12-15T20:11:56.239Z,60.90
2022-12-15T20:16:58.015Z,66.97
2022-12-15T20:22:02.354Z,75.20
2022-12-15T20:27:10.204Z,57.85
2022-12-15T20:32:19.852Z,49.57
2022-12-15T20:37:27.254Z,85.03
2022-12-15T20:42:29.142Z,88.53
2022-12-15T20:47:30.948Z,93.72
2022-12-15T20:52:33.569Z,75.85
2022-12-15T20:57:35.484Z,94.22
2022-12-15T21:02:37.485Z,87.70
2022-12-15T21:07:39.366Z,67.10
2022-12-15T21:12:42.667Z,83.53
2022-12-15T21:17:44.567Z,69.88
2022-12-15T21:22:46.666Z,89.72
2022-12-15T21:27:48.389Z,81.10
2022-12-15T21:32:50.844Z,87.43
2022-12-15T21:37:53.374Z,71.93
2022-12-15T21:42:56.987Z,67.93
2022-12-15T21:48:17.300Z,73.60
2022-12-15T21:58:24.409Z,66.20
2022-12-15T22:03:26.198Z,64.32
2022-12-15T22:08:28.016Z,62.63
2022-12-15T22:13:32.775Z,58.25
2022-12-15T22:18:35.139Z,46.17
2022-12-15T22:23:37.098Z,60.17
2022-12-15T22:28:39.037Z,55.00
2022-12-15T22:33:40.828Z,54.00
2022-12-15T22:38:43.708Z,58.47
2022-12-15T22:43:49.963Z,58.65
2022-12-15T22:48:54.712Z,62.80
2022-12-15T22:53:56.712Z,58.90
2022-12-15T22:59:03.907Z,51.67
2022-12-15T23:04:06.102Z,59.15
2022-12-15T23:09:07.861Z,59.53
2022-12-15T23:14:14.637Z,72.32
2022-12-15T23:19:25.039Z,68.50
2022-12-15T23:29:29.135Z,62.72
2022-12-15T23:34:31.417Z,68.60
2022-12-15T23:39:33.143Z,61.42
2022-12-15T23:44:37.225Z,63.10
2022-12-15T23:49:39.181Z,61.97
2022-12-15T23:54:40.913Z,65.15
2022-12-15T23:59:42.613Z,74.90
